Rhodhiss, North Carolina
Current Conditions -  °F | °C
As of 12:53 AM on Wednesday 26 Nov 2014 (Local Time) from KHKY Reporting Station
Light Rain Light Rain  
Wind Chill: 45°   Ceiling: 6000
Heat Index: 45°   Visibility: 7mi
Dew Point: 42°   Wind: 3mph
Humidity: 90%   Direction: 340°NNW
Pressure: 30.04"   Gusts: NA
Location:  35.77°N, 81.43°W
Report Text: KHKY 260553Z AUTO 34003KT 7SM -RA OVC060 07/06 A3004 RMK AO2 SLP160 P0004 60006 T00720056 10117 20072 58010
Loading
Personal Weather Stations






























Interactive Weather Map New forecast layout! Learn more

10-Day Weather Forecast

Advertisements
Track Severe Weather on mobile